Time;durP1;ratioP1;P1;durP2;ratioP2;P2;SDS_P1;SDS_P2;PMS_P1;PMS_P2;Temp;Humidity;BMP_temperature;BMP_pressure;BME280_temperature;BME280_humidity;BME280_pressure;Samples;Min_cycle;Max_cycle;Signal;HPM_P1;HPM_P2
2022/03/04 00:08:55;;;;;;;2.65;2.10;;;;;;;-148.93;100.00;62180.91;20777500;28;20050;-83
2022/03/04 00:29:59;;;;;;;2.55;2.00;;;;;;;-148.93;100.00;62180.91;20818627;28;20042;-85
2022/03/04 00:40:24;;;;;;;3.60;2.03;;;;;;;-148.93;100.00;62180.91;20807065;28;20042;-84
2022/03/04 00:50:35;;;;;;;2.83;2.10;;;;;;;-148.93;100.00;62180.91;20789807;28;20132;-85
2022/03/04 01:00:46;;;;;;;2.87;1.80;;;;;;;-148.93;100.00;62180.91;20783863;28;20041;-84
2022/03/04 01:10:56;;;;;;;2.45;1.83;;;;;;;-148.93;100.00;62180.91;20786274;28;20041;-84
2022/03/04 01:21:22;;;;;;;2.35;1.92;;;;;;;-148.93;100.00;62180.91;20764848;28;20068;-84
2022/03/04 01:31:41;;;;;;;3.78;2.05;;;;;;;-148.93;100.00;62180.91;20775859;28;20053;-83
2022/03/04 01:42:06;;;;;;;2.40;1.90;;;;;;;-148.93;100.00;62180.91;20821676;28;20132;-86
2022/03/04 01:52:21;;;;;;;3.22;1.85;;;;;;;-148.93;100.00;62180.91;20802984;28;20395;-86
2022/03/04 02:02:33;;;;;;;2.35;1.83;;;;;;;-148.93;100.00;62180.91;20787232;28;20053;-87
2022/03/04 02:12:44;;;;;;;2.95;1.70;;;;;;;-148.93;100.00;62180.91;20785310;28;20136;-86
2022/03/04 02:22:53;;;;;;;3.53;2.40;;;;;;;-148.93;100.00;62180.91;20796714;28;20132;-85
2022/03/04 02:33:01;;;;;;;2.53;1.98;;;;;;;-148.93;100.00;62180.91;21314169;22;20055;-79
2022/03/04 02:43:05;;;;;;;2.40;1.77;;;;;;;-148.93;100.00;62180.91;20728257;28;20040;-79
2022/03/04 02:53:12;;;;;;;2.65;2.00;;;;;;;-148.93;100.00;62180.91;20726455;28;20038;-78
2022/03/04 03:03:18;;;;;;;2.83;2.05;;;;;;;-148.93;100.00;62180.91;20722120;28;20042;-79
2022/03/04 03:13:23;;;;;;;2.50;1.80;;;;;;;-148.93;100.00;62180.91;20733598;28;20132;-78
2022/03/04 03:23:28;;;;;;;3.13;2.40;;;;;;;-148.93;100.00;62180.91;20729655;28;20099;-79
2022/03/04 03:33:36;;;;;;;3.30;2.30;;;;;;;-148.93;100.00;62180.91;20738305;28;20069;-78
2022/03/04 03:43:39;;;;;;;;;;;;;;;-148.93;100.00;62180.91;20688181;28;20034;-78
2022/03/04 03:53:46;;;;;;;2.38;1.83;;;;;;;-148.93;100.00;62180.91;20708480;28;19917;-78
2022/03/04 04:03:53;;;;;;;2.60;1.92;;;;;;;-148.93;100.00;62180.91;20774685;28;20048;-79
2022/03/04 04:14:03;;;;;;;2.10;1.85;;;;;;;-148.93;100.00;62180.91;20792075;28;20096;-79
2022/03/04 04:24:18;;;;;;;2.95;2.22;;;;;;;-148.93;100.00;62180.91;20806566;28;20033;-79
2022/03/04 04:34:23;;;;;;;2.38;1.95;;;;;;;-148.93;100.00;62180.91;20751534;28;20399;-80
2022/03/04 04:44:28;;;;;;;1.83;1.67;;;;;;;-148.93;100.00;62180.91;20710128;28;20133;-79
2022/03/04 04:54:37;;;;;;;3.40;2.45;;;;;;;-148.93;100.00;62180.91;20706365;28;20054;-80
2022/03/04 05:04:43;;;;;;;2.75;1.95;;;;;;;-148.93;100.00;62180.91;20708226;28;20384;-80
2022/03/04 05:14:49;;;;;;;3.35;2.40;;;;;;;-148.93;100.00;62180.91;20722293;28;20041;-80
2022/03/04 05:24:54;;;;;;;3.07;2.40;;;;;;;-148.93;100.00;62180.91;20707623;28;20048;-79
2022/03/04 05:35:00;;;;;;;2.72;1.88;;;;;;;-148.93;100.00;62180.91;20724132;28;20062;-79
2022/03/04 05:45:05;;;;;;;2.60;2.00;;;;;;;-148.93;100.00;62180.91;20721636;28;20498;-79
2022/03/04 05:55:09;;;;;;;3.10;2.17;;;;;;;-148.93;100.00;62180.91;20734499;28;20042;-80
2022/03/04 06:05:12;;;;;;;3.13;2.33;;;;;;;-148.93;100.00;62180.91;20724873;28;20029;-86
2022/03/04 06:15:23;;;;;;;2.97;1.90;;;;;;;-148.93;100.00;62180.91;20739165;28;20073;-85
2022/03/04 06:25:28;;;;;;;2.50;1.70;;;;;;;-148.93;100.00;62180.91;20669587;28;20108;-81
2022/03/04 06:35:31;;;;;;;2.92;2.13;;;;;;;-148.93;100.00;62180.91;20622691;28;20389;-80
2022/03/04 06:45:34;;;;;;;2.17;1.80;;;;;;;-148.93;100.00;62180.91;20669921;28;20046;-81
2022/03/04 06:55:38;;;;;;;1.92;1.70;;;;;;;-148.93;100.00;62180.91;20652866;28;20041;-87
2022/03/04 07:05:43;;;;;;;2.60;1.80;;;;;;;-148.93;100.00;62180.91;20637142;28;20129;-84
2022/03/04 07:15:56;;;;;;;2.63;1.75;;;;;;;-148.93;100.00;62180.91;20653442;28;20069;-93
2022/03/04 07:25:59;;;;;;;2.67;1.75;;;;;;;-148.93;100.00;62180.91;20650939;28;20045;-81
2022/03/04 07:36:02;;;;;;;3.03;2.50;;;;;;;-148.93;100.00;62180.91;20617883;28;20050;-81
2022/03/04 07:46:05;;;;;;;3.30;2.75;;;;;;;-148.93;100.00;62180.91;20649378;28;20495;-87
2022/03/04 07:56:16;;;;;;;5.05;2.65;;;;;;;-148.93;100.00;62180.91;20632509;28;20073;-83
2022/03/04 08:06:22;;;;;;;4.07;3.07;;;;;;;-148.93;100.00;62180.91;20632172;28;20097;-81
2022/03/04 08:16:29;;;;;;;7.40;4.20;;;;;;;-148.93;100.00;62180.91;20671197;28;20598;-85
2022/03/04 08:26:45;;;;;;;9.40;3.80;;;;;;;-148.93;100.00;62180.91;20669494;28;20124;-84
2022/03/04 08:36:59;;;;;;;10.00;3.40;;;;;;;-148.93;100.00;62180.91;20714359;28;20081;-86
2022/03/04 08:47:24;;;;;;;10.27;3.40;;;;;;;-148.93;100.00;62180.91;20693956;28;20050;-84
2022/03/04 08:58:00;;;;;;;5.50;3.03;;;;;;;-148.93;100.00;62180.91;20667992;28;20050;-88
2022/03/04 09:08:16;;;;;;;5.88;3.40;;;;;;;-148.93;100.00;62180.91;20725357;28;20120;-88
2022/03/04 09:18:19;;;;;;;5.75;2.65;;;;;;;-148.93;100.00;62180.91;20715745;28;20061;-87
2022/03/04 09:28:25;;;;;;;6.85;2.97;;;;;;;-148.93;100.00;62180.91;20693231;28;20042;-87
2022/03/04 09:38:34;;;;;;;3.55;2.80;;;;;;;-148.93;100.00;62180.91;20705919;28;20061;-90
2022/03/04 09:48:45;;;;;;;3.97;2.70;;;;;;;-148.93;100.00;62180.91;20725249;28;20042;-90
2022/03/04 09:59:10;;;;;;;5.47;2.72;;;;;;;-148.93;100.00;62180.91;20751935;28;20033;-89
2022/03/04 10:20:52;;;;;;;2.83;2.20;;;;;;;-148.93;100.00;62180.91;20736959;28;20187;-87
2022/03/04 10:32:00;;;;;;;3.75;2.50;;;;;;;-148.93;100.00;62180.91;20716080;28;20053;-90
2022/03/04 10:44:12;;;;;;;3.72;2.88;;;;;;;-148.93;100.00;62180.91;20699231;28;20046;-90
2022/03/04 11:07:30;;;;;;;2.75;1.85;;;;;;;-148.93;100.00;62180.91;20749482;28;20391;-89
2022/03/04 11:18:16;;;;;;;3.13;2.10;;;;;;;-148.93;100.00;62180.91;20716845;28;20132;-89
2022/03/04 11:28:44;;;;;;;2.90;2.00;;;;;;;-148.93;100.00;62180.91;20697751;28;20045;-89
2022/03/04 11:39:15;;;;;;;1.90;1.70;;;;;;;-148.93;100.00;62180.91;20750992;28;20078;-91
2022/03/04 11:49:38;;;;;;;3.55;1.67;;;;;;;-148.93;100.00;62180.91;20715106;28;20383;-92
2022/03/04 12:00:39;;;;;;;3.53;2.17;;;;;;;-148.93;100.00;62180.91;20735211;28;20502;-86
2022/03/04 12:10:52;;;;;;;2.75;2.05;;;;;;;-148.93;100.00;62180.91;20713491;28;20526;-87
2022/03/04 12:22:27;;;;;;;3.75;1.98;;;;;;;-148.93;100.00;62180.91;20771972;28;20046;-88
2022/03/04 12:34:23;;;;;;;3.53;1.95;;;;;;;-148.93;100.00;62180.91;20673476;28;20053;-83
2022/03/04 12:58:54;;;;;;;4.53;2.33;;;;;;;-148.93;100.00;62180.91;20744900;28;20431;-88
2022/03/04 13:09:08;;;;;;;2.55;1.90;;;;;;;-148.93;100.00;62180.91;20628815;28;20065;-96
2022/03/04 13:19:49;;;;;;;4.70;2.50;;;;;;;-148.93;100.00;62180.91;20799612;28;20046;-95
2022/03/04 13:31:50;;;;;;;4.07;2.67;;;;;;;-148.93;100.00;62180.91;20563246;28;20047;-93
2022/03/04 13:42:26;;;;;;;5.03;2.70;;;;;;;-148.93;100.00;62180.91;20541546;28;20074;-85
2022/03/04 13:52:59;;;;;;;4.50;2.35;;;;;;;-148.93;100.00;62180.91;20772511;28;20388;-84
2022/03/04 14:03:29;;;;;;;6.47;3.90;;;;;;;-148.93;100.00;62180.91;20738400;28;20053;-85
2022/03/04 14:13:32;;;;;;;11.15;4.68;;;;;;;-148.93;100.00;62180.91;20738010;28;20129;-85
2022/03/04 14:23:38;;;;;;;17.42;6.15;;;;;;;-148.93;100.00;62180.91;20721159;28;20037;-86
2022/03/04 14:33:43;;;;;;;10.48;5.43;;;;;;;-148.93;100.00;62180.91;20720220;28;20049;-88
2022/03/04 14:43:53;;;;;;;9.48;5.00;;;;;;;-148.93;100.00;62180.91;20719120;28;20038;-86
2022/03/04 14:53:56;;;;;;;10.05;4.82;;;;;;;-148.93;100.00;62180.91;20718722;28;20049;-86
2022/03/04 15:04:36;;;;;;;9.63;4.85;;;;;;;-148.93;100.00;62180.91;20734907;28;20045;-87
2022/03/04 15:14:42;;;;;;;10.20;4.70;;;;;;;-148.93;100.00;62180.91;20717468;28;20417;-83
2022/03/04 15:24:48;;;;;;;8.10;4.50;;;;;;;-148.93;100.00;62180.91;20717935;28;20034;-86
2022/03/04 15:34:54;;;;;;;7.43;4.15;;;;;;;-148.93;100.00;62180.91;20714973;28;20069;-86
2022/03/04 15:57:04;;;;;;;10.38;3.75;;;;;;;-148.93;100.00;62180.91;20703465;28;20042;-90
2022/03/04 16:07:08;;;;;;;8.85;3.63;;;;;;;-148.93;100.00;62180.91;20697603;28;20038;-89
2022/03/04 16:17:14;;;;;;;9.32;3.67;;;;;;;-148.93;100.00;62180.91;20729873;28;20152;-84
2022/03/04 16:27:25;;;;;;;10.45;3.58;;;;;;;-148.93;100.00;62180.91;20728211;28;20424;-94
2022/03/04 16:37:43;;;;;;;8.73;3.63;;;;;;;-148.93;100.00;62180.91;20710893;28;20085;-87
2022/03/04 16:48:01;;;;;;;8.25;3.47;;;;;;;-148.93;100.00;62180.91;20734139;28;20050;-87
2022/03/04 16:58:06;;;;;;;5.72;2.65;;;;;;;-148.93;100.00;62180.91;20710212;28;20050;-90
2022/03/04 17:08:25;;;;;;;6.03;2.80;;;;;;;-148.93;100.00;62180.91;20720974;28;20050;-89
2022/03/04 17:18:30;;;;;;;;;;;;;;;-148.93;100.00;62180.91;20742609;28;20046;-82
2022/03/04 17:28:34;;;;;;;4.05;2.53;;;;;;;-148.93;100.00;62180.91;20648595;28;19922;-82
2022/03/04 17:38:36;;;;;;;4.93;2.53;;;;;;;-148.93;100.00;62180.91;20643152;28;20061;-82
2022/03/04 17:48:41;;;;;;;4.40;2.33;;;;;;;-148.93;100.00;62180.91;20642779;28;20046;-82
2022/03/04 17:58:44;;;;;;;4.28;2.40;;;;;;;-148.93;100.00;62180.91;20641863;28;20046;-83
2022/03/04 18:08:46;;;;;;;3.42;1.90;;;;;;;-148.93;100.00;62180.91;20673648;28;20042;-83
2022/03/04 18:18:51;;;;;;;4.25;1.90;;;;;;;-148.93;100.00;62180.91;20638645;28;20038;-83
2022/03/04 18:28:57;;;;;;;3.33;2.30;;;;;;;-148.93;100.00;62180.91;20671845;28;20070;-83
2022/03/04 18:49:29;;;;;;;3.35;1.80;;;;;;;-148.93;100.00;62180.91;20654478;28;20038;-84
2022/03/04 18:59:33;;;;;;;3.72;1.70;;;;;;;-148.93;100.00;62180.91;20638256;28;20104;-83
2022/03/04 19:09:38;;;;;;;3.00;1.75;;;;;;;-148.93;100.00;62180.91;20636376;28;20049;-83
2022/03/04 19:19:44;;;;;;;3.65;1.55;;;;;;;-148.93;100.00;62180.91;20653037;28;20041;-81
2022/03/04 19:29:47;;;;;;;3.65;1.60;;;;;;;-148.93;100.00;62180.91;20705692;28;20072;-84
2022/03/04 19:39:51;;;;;;;3.72;1.60;;;;;;;-148.93;100.00;62180.91;20702545;28;20436;-89
2022/03/04 19:49:57;;;;;;;2.87;1.30;;;;;;;-148.93;100.00;62180.91;20776434;28;20038;-87
2022/03/04 20:00:01;;;;;;;1.97;1.40;;;;;;;-148.93;100.00;62180.91;20763260;28;20045;-83
2022/03/04 20:10:12;;;;;;;3.03;1.50;;;;;;;-148.93;100.00;62180.91;20781026;28;20449;-84
2022/03/04 20:20:15;;;;;;;1.85;1.50;;;;;;;-148.93;100.00;62180.91;20745953;28;20449;-84
2022/03/04 20:30:21;;;;;;;1.95;1.30;;;;;;;-148.93;100.00;62180.91;20746604;28;20041;-81
2022/03/04 20:40:23;;;;;;;1.85;1.02;;;;;;;-148.93;100.00;62180.91;20792846;28;20439;-81
2022/03/04 20:50:33;;;;;;;1.30;1.00;;;;;;;-148.93;100.00;62180.91;20794784;28;20068;-82
2022/03/04 21:00:37;;;;;;;2.33;1.08;;;;;;;-148.93;100.00;62180.91;20778684;28;20041;-81
2022/03/04 21:10:40;;;;;;;1.58;1.25;;;;;;;-148.93;100.00;62180.91;20778387;28;20038;-82
2022/03/04 21:20:43;;;;;;;1.48;1.00;;;;;;;-148.93;100.00;62180.91;20778185;28;20487;-86
2022/03/04 21:30:46;;;;;;;1.52;1.20;;;;;;;-148.93;100.00;62180.91;20793796;28;20115;-86
2022/03/04 21:40:49;;;;;;;2.17;1.27;;;;;;;-148.93;100.00;62180.91;20776167;28;20060;-86
2022/03/04 21:50:51;;;;;;;1.58;1.23;;;;;;;-148.93;100.00;62180.91;20782782;28;20080;-85
2022/03/04 22:01:02;;;;;;;1.55;1.10;;;;;;;-148.93;100.00;62180.91;20794318;28;20072;-85
2022/03/04 22:11:09;;;;;;;1.60;1.08;;;;;;;-148.93;100.00;62180.91;20807844;28;20128;-86
2022/03/04 22:21:18;;;;;;;2.08;1.30;;;;;;;-148.93;100.00;62180.91;20791772;28;20045;-85
2022/03/04 22:31:21;;;;;;;2.03;1.10;;;;;;;-148.93;100.00;62180.91;20789418;28;20059;-85
2022/03/04 22:41:24;;;;;;;1.70;1.20;;;;;;;-148.93;100.00;62180.91;20787546;28;20128;-85
2022/03/04 22:51:26;;;;;;;2.40;1.15;;;;;;;-148.93;100.00;62180.91;20771571;28;20042;-86
2022/03/04 23:01:29;;;;;;;1.20;1.10;;;;;;;-148.93;100.00;62180.91;20801687;28;20081;-86
2022/03/04 23:11:37;;;;;;;1.25;1.08;;;;;;;-148.93;100.00;62180.91;20787498;28;20435;-86
2022/03/04 23:21:40;;;;;;;1.17;1.08;;;;;;;-148.93;100.00;62180.91;20769257;28;20046;-86
2022/03/04 23:31:43;;;;;;;1.90;1.20;;;;;;;-148.93;100.00;62180.91;20768395;28;20046;-86
2022/03/04 23:41:47;;;;;;;1.77;1.20;;;;;;;-148.93;100.00;62180.91;20768245;28;20045;-86
2022/03/04 23:51:52;;;;;;;1.30;1.20;;;;;;;-148.93;100.00;62180.91;20800070;28;20080;-86
